Time;durP1;ratioP1;P1;durP2;ratioP2;P2;SDS_P1;SDS_P2;PMS_P1;PMS_P2;Temp;Humidity;BMP_temperature;BMP_pressure;BME280_temperature;BME280_humidity;BME280_pressure;Samples;Min_cycle;Max_cycle;Signal;HPM_P1;HPM_P2
2022/07/20 00:01:08;;;;;;;6.80;5.13;;;20.30;90.90;;;;;;5071431;28;20446;-67
2022/07/20 00:03:35;;;;;;;6.43;4.97;;;20.20;89.70;;;;;;5071947;28;20504;-67
2022/07/20 00:06:02;;;;;;;8.67;5.60;;;20.00;90.00;;;;;;5071800;28;20486;-70
2022/07/20 00:11:22;;;;;;;8.83;5.33;;;20.10;90.30;;;;;;5071302;28;20422;-68
2022/07/20 00:13:52;;;;;;;6.17;5.40;;;20.10;90.40;;;;;;5071950;28;20453;-65
2022/07/20 00:16:21;;;;;;;7.93;5.60;;;20.10;90.90;;;;;;5071428;28;20966;-68
2022/07/20 00:18:47;;;;;;;10.03;5.67;;;20.10;90.90;;;;;;5071840;28;20463;-66
2022/07/20 00:21:15;;;;;;;7.17;6.17;;;20.10;90.70;;;;;;5071289;28;20451;-68
2022/07/20 00:23:41;;;;;;;7.80;5.10;;;20.20;90.90;;;;;;5071608;28;20443;-66
2022/07/20 00:26:08;;;;;;;8.87;5.70;;;20.20;90.90;;;;;;5071389;28;20458;-66
2022/07/20 00:28:36;;;;;;;5.60;4.70;;;20.20;93.30;;;;;;5071437;28;20455;-68
2022/07/20 00:31:02;;;;;;;6.70;5.67;;;20.10;95.30;;;;;;5070825;28;20451;-68
2022/07/20 00:33:31;;;;;;;9.97;5.60;;;20.00;95.70;;;;;;5071341;28;20461;-69
2022/07/20 00:35:57;;;;;;;6.60;5.83;;;19.80;95.30;;;;;;5070783;28;20482;-68
2022/07/20 00:38:25;;;;;;;5.80;5.20;;;19.70;97.00;;;;;;5071304;28;20905;-68
2022/07/20 00:40:51;;;;;;;6.50;4.90;;;19.60;97.10;;;;;;5070606;28;20504;-70
2022/07/20 00:43:18;;;;;;;8.40;5.70;;;19.50;96.10;;;;;;5070910;28;20534;-67
2022/07/20 00:45:46;;;;;;;8.10;5.70;;;19.40;95.70;;;;;;5072282;28;20826;-68
2022/07/20 00:48:13;;;;;;;6.93;5.17;;;19.40;96.50;;;;;;5071393;28;20458;-69
2022/07/20 00:50:41;;;;;;;6.20;5.17;;;19.40;95.70;;;;;;5070232;28;20455;-70
2022/07/20 00:53:08;;;;;;;6.03;5.40;;;19.50;94.90;;;;;;5071123;28;20451;-68
2022/07/20 00:55:36;;;;;;;5.93;4.90;;;19.60;95.10;;;;;;5070449;28;20864;-69
2022/07/20 00:58:03;;;;;;;7.40;5.27;;;19.50;95.20;;;;;;5071215;28;20454;-68
2022/07/20 01:00:30;;;;;;;6.73;5.70;;;19.50;95.60;;;;;;5070257;28;20454;-67
2022/07/20 01:02:57;;;;;;;9.07;6.00;;;19.50;94.10;;;;;;5070327;28;20465;-68
2022/07/20 01:05:24;;;;;;;6.20;5.10;;;19.40;96.40;;;;;;5070418;28;20467;-68
2022/07/20 01:07:52;;;;;;;7.13;5.50;;;19.40;95.90;;;;;;5070730;28;20505;-70
2022/07/20 01:10:20;;;;;;;6.67;5.77;;;19.40;94.90;;;;;;5069764;28;20463;-69
2022/07/20 01:12:48;;;;;;;6.50;5.87;;;19.50;94.90;;;;;;5070942;28;20443;-68
2022/07/20 01:15:16;;;;;;;8.90;5.90;;;19.40;97.00;;;;;;5070281;28;20557;-70
2022/07/20 01:17:43;;;;;;;6.17;5.57;;;19.30;97.90;;;;;;5070799;28;20451;-68
2022/07/20 01:20:16;;;;;;;5.87;5.03;;;19.20;99.70;;;;;;5069816;28;20451;-69
2022/07/20 01:22:44;;;;;;;7.23;5.50;;;19.10;98.50;;;;;;5070246;28;21190;-68
2022/07/20 01:25:11;;;;;;;7.47;5.40;;;19.00;96.80;;;;;;5070277;28;20466;-68
2022/07/20 01:27:38;;;;;;;9.40;5.33;;;19.00;97.60;;;;;;5070241;28;20451;-66
2022/07/20 01:30:06;;;;;;;6.93;5.53;;;18.90;97.70;;;;;;5069562;28;20461;-66
2022/07/20 01:32:33;;;;;;;6.50;5.53;;;18.90;97.80;;;;;;5070223;28;20451;-69
2022/07/20 01:35:00;;;;;;;7.03;6.30;;;18.90;96.80;;;;;;5069814;28;20490;-68
2022/07/20 01:37:28;;;;;;;6.23;5.60;;;19.00;97.40;;;;;;5069964;28;20455;-67
2022/07/20 01:39:56;;;;;;;6.83;6.17;;;19.00;96.90;;;;;;5069473;28;20459;-66
2022/07/20 01:42:23;;;;;;;8.77;5.80;;;18.90;98.40;;;;;;5070049;28;20454;-68
2022/07/20 01:44:49;;;;;;;7.60;6.90;;;18.90;97.40;;;;;;5069801;28;20466;-67
2022/07/20 01:47:16;;;;;;;9.10;5.80;;;19.00;97.30;;;;;;5070008;28;20465;-69
2022/07/20 01:49:43;;;;;;;7.40;5.30;;;19.00;96.80;;;;;;5069686;28;20458;-65
2022/07/20 01:52:10;;;;;;;9.50;6.30;;;18.90;98.20;;;;;;5069625;28;20455;-67
2022/07/20 01:54:37;;;;;;;8.33;5.47;;;18.90;97.70;;;;;;5069812;28;20483;-67
2022/07/20 01:57:05;;;;;;;9.00;6.23;;;18.80;97.70;;;;;;5070363;28;20443;-68
2022/07/20 01:59:33;;;;;;;7.37;5.50;;;18.80;98.70;;;;;;5070105;28;20450;-67
2022/07/20 02:02:00;;;;;;;6.53;5.80;;;18.70;99.50;;;;;;5069137;28;20458;-66
2022/07/20 02:04:27;;;;;;;11.17;6.13;;;18.70;99.90;;;;;;5069599;28;21051;-70
2022/07/20 02:06:53;;;;;;;11.63;6.23;;;18.80;99.90;;;;;;5070069;28;20451;-68
2022/07/20 02:09:20;;;;;;;6.67;5.87;;;18.80;99.90;;;;;;5069811;28;20447;-66
2022/07/20 02:11:47;;;;;;;8.50;5.97;;;18.60;99.90;;;;;;5068974;28;20447;-68
2022/07/20 02:14:15;;;;;;;6.57;5.97;;;18.60;99.90;;;;;;5069699;28;20831;-68
2022/07/20 02:16:42;;;;;;;8.10;6.00;;;18.60;99.90;;;;;;5069933;28;20439;-67
2022/07/20 02:19:09;;;;;;;7.63;6.30;;;18.50;99.90;;;;;;5070024;28;20439;-65
2022/07/20 02:21:36;;;;;;;9.70;6.83;;;18.40;99.90;;;;;;5069243;28;20451;-68
2022/07/20 02:24:03;;;;;;;8.20;6.93;;;18.30;99.90;;;;;;5070044;28;20482;-67
2022/07/20 02:26:30;;;;;;;11.30;6.10;;;18.30;99.90;;;;;;5069749;28;20447;-68
2022/07/20 02:28:57;;;;;;;12.73;6.77;;;18.40;99.90;;;;;;5069888;28;21152;-68
2022/07/20 02:31:26;;;;;;;7.90;6.40;;;18.30;99.90;;;;;;5068853;28;20447;-67
2022/07/20 02:33:53;;;;;;;7.50;6.70;;;18.30;99.90;;;;;;5069732;28;20451;-68
2022/07/20 02:36:20;;;;;;;9.60;7.00;;;18.40;99.90;;;;;;5069320;28;20481;-69
2022/07/20 02:38:47;;;;;;;10.33;6.90;;;18.40;99.90;;;;;;5069750;28;20445;-68
2022/07/20 02:41:14;;;;;;;9.00;6.83;;;18.30;99.90;;;;;;5068912;28;20439;-69
2022/07/20 02:43:41;;;;;;;9.30;7.30;;;18.10;99.90;;;;;;5069872;28;20806;-67
2022/07/20 02:46:07;;;;;;;7.33;6.20;;;18.10;99.90;;;;;;5069088;28;20462;-67
2022/07/20 02:48:35;;;;;;;9.90;6.60;;;17.90;99.90;;;;;;5069654;28;20937;-68
2022/07/20 02:51:02;;;;;;;11.77;7.50;;;17.90;99.90;;;;;;5068648;28;21019;-69
2022/07/20 02:53:29;;;;;;;8.60;6.20;;;17.90;99.90;;;;;;5069487;28;20801;-67
2022/07/20 02:55:56;;;;;;;7.80;6.37;;;18.00;99.90;;;;;;5068977;28;20478;-67
2022/07/20 02:58:23;;;;;;;8.90;6.93;;;18.00;99.90;;;;;;5069655;28;20469;-70
2022/07/20 03:00:49;;;;;;;7.80;6.53;;;18.00;99.90;;;;;;5068514;28;20443;-67
2022/07/20 03:03:16;;;;;;;14.63;7.50;;;18.10;99.90;;;;;;5069664;28;20439;-68
2022/07/20 03:05:45;;;;;;;8.27;6.90;;;18.00;99.90;;;;;;5068882;28;20470;-68
2022/07/20 03:08:11;;;;;;;9.03;6.33;;;18.10;99.90;;;;;;5069427;28;20442;-69
2022/07/20 03:10:38;;;;;;;9.23;7.40;;;18.10;99.90;;;;;;5068356;28;20455;-66
2022/07/20 03:13:05;;;;;;;12.00;7.70;;;18.00;99.90;;;;;;5069033;28;20454;-67
2022/07/20 03:15:32;;;;;;;10.03;6.43;;;18.10;99.90;;;;;;5068551;28;20490;-68
2022/07/20 03:17:59;;;;;;;9.17;7.30;;;18.10;99.90;;;;;;5069396;28;20978;-68
2022/07/20 03:20:27;;;;;;;12.37;7.90;;;18.10;99.90;;;;;;5068124;28;20483;-70
2022/07/20 03:22:56;;;;;;;8.63;6.53;;;18.00;99.90;;;;;;5069137;28;20481;-67
2022/07/20 03:25:23;;;;;;;8.63;6.80;;;17.90;99.90;;;;;;5069827;28;20462;-69
2022/07/20 03:27:53;;;;;;;8.67;6.00;;;17.90;99.90;;;;;;5072526;28;20443;-68
2022/07/20 03:30:20;;;;;;;11.83;6.67;;;17.90;99.90;;;;;;5071700;28;20463;-69
2022/07/20 03:32:47;;;;;;;8.10;6.87;;;17.80;99.90;;;;;;5072619;28;21069;-69
2022/07/20 03:35:14;;;;;;;8.43;7.30;;;17.70;99.90;;;;;;5072064;28;20487;-67
2022/07/20 03:37:41;;;;;;;8.90;7.30;;;17.60;99.90;;;;;;5072405;28;20508;-67
2022/07/20 03:40:10;;;;;;;9.43;6.33;;;17.60;99.90;;;;;;5072296;28;20451;-66
2022/07/20 03:42:37;;;;;;;7.63;6.90;;;17.60;99.90;;;;;;5072652;28;20455;-68
2022/07/20 03:45:07;;;;;;;9.90;6.80;;;17.60;99.90;;;;;;5072104;28;20494;-65
2022/07/20 03:47:34;;;;;;;8.80;7.40;;;17.60;99.90;;;;;;5072452;28;20447;-67
2022/07/20 03:50:01;;;;;;;7.63;6.57;;;17.50;99.90;;;;;;5071548;28;20447;-66
2022/07/20 03:52:27;;;;;;;8.10;7.00;;;17.50;99.90;;;;;;5072197;28;20983;-68
2022/07/20 03:54:54;;;;;;;8.30;6.53;;;17.50;99.90;;;;;;5071711;28;20466;-68
2022/07/20 03:57:22;;;;;;;11.10;7.83;;;17.50;99.90;;;;;;5072054;28;20449;-70
2022/07/20 03:59:49;;;;;;;10.60;7.43;;;17.50;99.90;;;;;;5071314;28;20447;-68
2022/07/20 04:02:16;;;;;;;7.30;6.37;;;17.40;99.90;;;;;;5071722;28;20459;-67
2022/07/20 04:04:43;;;;;;;7.87;7.10;;;17.50;99.90;;;;;;5071503;28;20473;-68
2022/07/20 04:07:09;;;;;;;8.17;6.97;;;17.50;99.90;;;;;;5072042;28;20439;-68
2022/07/20 04:09:46;;;;;;;9.50;6.60;;;17.50;99.90;;;;;;5071718;28;20443;-69
2022/07/20 04:12:15;;;;;;;10.00;7.03;;;17.50;99.90;;;;;;5071829;28;20447;-68
2022/07/20 04:14:44;;;;;;;7.63;6.70;;;17.40;99.90;;;;;;5071285;28;20471;-66
2022/07/20 04:17:11;;;;;;;9.97;6.87;;;17.50;99.90;;;;;;5071791;28;21032;-67
2022/07/20 04:19:38;;;;;;;9.17;6.60;;;17.50;99.90;;;;;;5071512;28;20447;-70
2022/07/20 04:22:05;;;;;;;8.07;6.20;;;17.50;99.90;;;;;;5071164;28;20462;-68
2022/07/20 04:24:32;;;;;;;8.67;6.90;;;17.60;99.90;;;;;;5071213;28;20949;-67
2022/07/20 04:26:59;;;;;;;7.10;5.80;;;17.70;99.90;;;;;;5071737;28;20443;-69
2022/07/20 04:29:26;;;;;;;7.60;6.40;;;17.70;99.90;;;;;;5071491;28;20526;-67
2022/07/20 04:31:54;;;;;;;8.30;6.47;;;17.70;99.90;;;;;;5070762;28;21065;-67
2022/07/20 04:34:21;;;;;;;6.40;5.80;;;17.80;99.90;;;;;;5070774;28;20475;-69
2022/07/20 04:36:48;;;;;;;7.33;6.33;;;17.80;99.90;;;;;;5070208;28;20489;-67
2022/07/20 04:39:15;;;;;;;8.43;6.60;;;17.80;99.90;;;;;;5071007;28;20443;-66
2022/07/20 04:41:42;;;;;;;9.50;6.43;;;17.90;99.90;;;;;;5070441;28;20872;-68
2022/07/20 04:44:09;;;;;;;8.00;6.20;;;18.00;99.90;;;;;;5071101;28;20477;-65
2022/07/20 04:46:36;;;;;;;7.13;6.33;;;18.00;99.90;;;;;;5070753;28;20454;-66
2022/07/20 04:49:04;;;;;;;7.03;6.33;;;18.00;99.90;;;;;;5070992;28;20453;-70
2022/07/20 04:51:31;;;;;;;8.87;7.03;;;18.10;99.90;;;;;;5070095;28;20449;-69
2022/07/20 04:53:58;;;;;;;7.30;6.40;;;18.10;99.90;;;;;;5071038;28;20450;-67
2022/07/20 04:56:25;;;;;;;8.53;7.20;;;18.20;99.90;;;;;;5067930;28;20479;-68
2022/07/20 04:58:52;;;;;;;9.40;6.70;;;18.30;99.90;;;;;;5061550;28;20440;-69
2022/07/20 05:01:20;;;;;;;6.70;6.00;;;18.40;99.90;;;;;;5065742;28;20532;-68
2022/07/20 05:03:47;;;;;;;11.80;6.97;;;18.50;99.90;;;;;;5056518;28;20961;-68
2022/07/20 05:06:15;;;;;;;7.40;6.60;;;18.50;99.90;;;;;;5050557;28;20455;-68
2022/07/20 05:08:42;;;;;;;7.37;6.50;;;18.50;99.90;;;;;;5051092;28;20978;-66
2022/07/20 05:11:08;;;;;;;7.50;6.27;;;18.60;99.90;;;;;;5050157;28;20452;-67
2022/07/20 05:13:35;;;;;;;8.50;6.57;;;18.70;99.90;;;;;;5051143;28;20448;-66
2022/07/20 05:16:02;;;;;;;11.23;7.00;;;18.70;99.90;;;;;;5056815;28;20483;-67
2022/07/20 05:18:30;;;;;;;7.80;7.10;;;18.80;99.90;;;;;;5069568;28;20447;-68
2022/07/20 05:20:57;;;;;;;8.10;7.30;;;18.90;99.90;;;;;;5069051;28;20829;-67
2022/07/20 05:23:25;;;;;;;12.97;7.50;;;19.00;99.90;;;;;;5068839;28;20458;-66
2022/07/20 05:25:52;;;;;;;11.60;7.30;;;19.00;99.90;;;;;;5069472;28;20465;-67
2022/07/20 05:28:20;;;;;;;11.33;7.50;;;19.10;99.90;;;;;;5069685;28;20431;-67
2022/07/20 05:30:47;;;;;;;8.23;6.40;;;19.10;99.90;;;;;;5069489;28;20918;-67
2022/07/20 05:33:14;;;;;;;10.47;6.63;;;19.30;99.90;;;;;;5070485;28;20497;-67
2022/07/20 05:35:41;;;;;;;8.20;6.87;;;19.30;99.90;;;;;;5069900;28;20482;-68
2022/07/20 05:38:08;;;;;;;8.53;6.80;;;19.40;99.90;;;;;;5070060;28;20831;-67
2022/07/20 05:40:36;;;;;;;8.40;6.53;;;19.40;99.90;;;;;;5069238;28;20454;-67
2022/07/20 05:43:03;;;;;;;10.03;7.50;;;19.50;99.90;;;;;;5069649;28;20855;-68
2022/07/20 05:45:29;;;;;;;8.80;7.20;;;19.60;99.90;;;;;;5069663;28;20988;-68
2022/07/20 05:47:56;;;;;;;8.73;6.87;;;19.70;99.90;;;;;;5070055;28;20450;-67
2022/07/20 05:50:23;;;;;;;9.23;7.13;;;19.80;99.90;;;;;;5069193;28;20443;-68
2022/07/20 05:52:51;;;;;;;10.80;7.60;;;19.90;99.90;;;;;;5070117;28;20443;-66
2022/07/20 05:55:18;;;;;;;10.03;7.33;;;20.10;99.90;;;;;;5069422;28;20540;-69
2022/07/20 05:57:46;;;;;;;11.17;7.53;;;20.20;99.90;;;;;;5069175;28;20851;-65
2022/07/20 06:00:13;;;;;;;9.47;7.60;;;20.40;99.90;;;;;;5068999;28;20451;-66
2022/07/20 06:02:40;;;;;;;12.20;8.90;;;20.40;99.90;;;;;;5069838;28;20454;-67
2022/07/20 06:05:09;;;;;;;11.10;8.30;;;20.60;99.90;;;;;;5069463;28;20463;-67
2022/07/20 06:07:35;;;;;;;9.10;7.37;;;20.70;99.90;;;;;;5070040;28;20447;-64
2022/07/20 06:10:02;;;;;;;10.17;7.93;;;20.90;99.90;;;;;;5068884;28;20987;-68
2022/07/20 06:12:29;;;;;;;9.20;7.60;;;20.90;99.90;;;;;;5069651;28;20832;-66
2022/07/20 06:14:57;;;;;;;9.73;6.70;;;21.10;99.90;;;;;;5069305;28;20470;-67
2022/07/20 06:17:24;;;;;;;10.50;6.90;;;21.20;99.90;;;;;;5069866;28;20475;-67
2022/07/20 06:19:51;;;;;;;10.10;7.23;;;21.40;99.90;;;;;;5068901;28;20454;-67
2022/07/20 06:22:18;;;;;;;11.90;7.23;;;21.50;99.90;;;;;;5069521;28;20457;-67
2022/07/20 06:24:45;;;;;;;9.07;6.80;;;21.70;99.90;;;;;;5069120;28;20467;-69
2022/07/20 06:27:12;;;;;;;10.73;7.80;;;21.80;99.90;;;;;;5070264;28;20523;-69
2022/07/20 06:29:39;;;;;;;8.07;6.87;;;22.00;99.90;;;;;;5069455;28;20447;-67
2022/07/20 06:32:08;;;;;;;9.30;6.77;;;22.10;99.90;;;;;;5068845;28;20955;-68
2022/07/20 06:34:34;;;;;;;7.73;6.47;;;22.30;99.90;;;;;;5069257;28;20471;-67
2022/07/20 06:37:01;;;;;;;12.00;6.50;;;22.40;99.90;;;;;;5069366;28;20486;-68
2022/07/20 06:39:28;;;;;;;9.73;6.40;;;22.60;99.90;;;;;;5069310;28;20533;-68
2022/07/20 06:41:55;;;;;;;6.97;5.90;;;22.70;99.90;;;;;;5068731;28;20455;-67
2022/07/20 06:44:21;;;;;;;10.20;6.60;;;22.80;99.90;;;;;;5069052;28;20470;-69
2022/07/20 06:46:48;;;;;;;7.10;5.97;;;23.00;99.90;;;;;;5069431;28;20447;-67
2022/07/20 06:49:16;;;;;;;6.70;5.53;;;23.10;99.90;;;;;;5069561;28;20458;-67
2022/07/20 06:51:43;;;;;;;8.10;5.90;;;23.20;99.90;;;;;;5068523;28;20451;-66
2022/07/20 06:54:10;;;;;;;10.50;6.47;;;23.30;99.90;;;;;;5069300;28;20842;-67
2022/07/20 06:56:37;;;;;;;9.50;6.23;;;23.50;99.90;;;;;;5069048;28;20483;-69
2022/07/20 06:59:04;;;;;;;6.97;6.27;;;23.60;99.90;;;;;;5069327;28;20979;-66
2022/07/20 07:01:30;;;;;;;8.60;5.97;;;23.70;99.90;;;;;;5071749;28;20940;-67
2022/07/20 07:03:57;;;;;;;9.37;5.60;;;23.90;99.40;;;;;;5073218;28;20454;-67
2022/07/20 07:06:28;;;;;;;8.27;6.00;;;24.00;99.00;;;;;;5072770;28;20823;-64
2022/07/20 07:08:55;;;;;;;10.73;5.60;;;24.20;98.00;;;;;;5073220;28;20569;-68
2022/07/20 07:11:22;;;;;;;7.70;6.90;;;24.40;98.40;;;;;;5072528;28;20447;-67
2022/07/20 07:13:49;;;;;;;7.63;5.80;;;24.70;97.00;;;;;;5073148;28;20486;-68
2022/07/20 07:16:15;;;;;;;6.70;5.50;;;24.80;97.40;;;;;;5072608;28;20985;-67
2022/07/20 07:18:42;;;;;;;7.53;6.27;;;24.90;96.20;;;;;;5072950;28;20453;-68
2022/07/20 07:21:09;;;;;;;7.40;6.13;;;25.10;96.40;;;;;;5072011;28;20451;-67
2022/07/20 07:23:37;;;;;;;9.53;6.97;;;25.20;95.50;;;;;;5072918;28;20443;-67
2022/07/20 07:26:04;;;;;;;7.53;6.43;;;25.40;94.90;;;;;;5072701;28;20463;-66
2022/07/20 07:28:32;;;;;;;9.00;6.83;;;25.50;94.90;;;;;;5072873;28;20443;-67
2022/07/20 07:30:58;;;;;;;8.33;6.33;;;25.60;94.70;;;;;;5072311;28;20458;-67
2022/07/20 07:33:26;;;;;;;7.73;6.50;;;25.70;95.40;;;;;;5072827;28;20452;-65
2022/07/20 07:35:52;;;;;;;9.23;6.87;;;25.90;94.00;;;;;;5070700;28;21059;-69
2022/07/20 07:38:19;;;;;;;7.60;6.80;;;26.00;93.70;;;;;;5066809;28;20475;-67
2022/07/20 07:40:49;;;;;;;7.87;6.50;;;26.10;93.80;;;;;;5060422;28;20447;-67
2022/07/20 07:43:16;;;;;;;8.60;7.33;;;26.20;93.20;;;;;;5054278;28;20452;-70
2022/07/20 07:45:43;;;;;;;15.10;8.30;;;26.40;93.10;;;;;;5059929;28;21301;-68
2022/07/20 07:48:10;;;;;;;10.00;6.60;;;26.40;93.90;;;;;;5069972;28;20474;-66
2022/07/20 07:50:38;;;;;;;10.40;7.20;;;26.60;94.00;;;;;;5051417;28;20478;-67
2022/07/20 07:53:05;;;;;;;9.73;7.20;;;26.70;93.90;;;;;;5052321;28;20466;-69
2022/07/20 07:55:32;;;;;;;11.33;6.63;;;26.90;94.10;;;;;;5052161;28;20468;-66
2022/07/20 07:58:00;;;;;;;7.60;6.63;;;27.10;93.10;;;;;;5052466;28;20571;-68
2022/07/20 08:00:28;;;;;;;10.70;7.50;;;27.30;91.90;;;;;;5067007;28;20345;-67
2022/07/20 08:02:54;;;;;;;7.80;7.10;;;27.40;91.10;;;;;;5063703;28;20205;-68
2022/07/20 08:05:22;;;;;;;13.30;7.17;;;27.50;91.60;;;;;;5063192;28;20471;-67
2022/07/20 08:07:49;;;;;;;12.23;7.23;;;27.80;88.00;;;;;;5061647;28;20992;-69
2022/07/20 08:10:16;;;;;;;8.70;7.00;;;27.90;89.70;;;;;;5065229;28;20824;-67
2022/07/20 08:12:43;;;;;;;8.50;7.17;;;28.10;87.70;;;;;;5059455;28;20461;-70
2022/07/20 08:15:12;;;;;;;8.20;7.37;;;28.30;88.00;;;;;;5071285;28;20474;-66
2022/07/20 08:17:39;;;;;;;8.10;7.30;;;28.30;87.60;;;;;;5071352;28;20462;-68
2022/07/20 08:20:07;;;;;;;10.97;7.60;;;28.50;83.70;;;;;;5067237;28;20857;-67
2022/07/20 08:22:34;;;;;;;8.03;7.23;;;28.50;87.10;;;;;;5071850;28;20443;-67
2022/07/20 08:25:01;;;;;;;12.47;7.40;;;28.70;84.70;;;;;;5071214;28;20471;-67
2022/07/20 08:27:28;;;;;;;11.33;6.87;;;28.80;83.80;;;;;;5066614;28;20440;-68
2022/07/20 08:29:58;;;;;;;8.63;7.60;;;29.00;84.80;;;;;;5050899;28;20456;-67
2022/07/20 08:32:26;;;;;;;7.20;6.60;;;29.10;83.30;;;;;;5065991;28;20454;-66
2022/07/20 08:34:53;;;;;;;8.90;7.73;;;29.30;83.40;;;;;;5070757;28;20474;-68
2022/07/20 08:37:20;;;;;;;10.23;7.07;;;29.50;82.60;;;;;;5051206;28;20479;-68
2022/07/20 08:39:47;;;;;;;9.37;7.00;;;29.60;78.90;;;;;;5060391;28;20451;-66
2022/07/20 08:42:14;;;;;;;8.97;6.83;;;29.70;78.80;;;;;;5071309;28;21105;-67
2022/07/20 08:44:41;;;;;;;9.43;7.20;;;29.90;78.00;;;;;;5066985;28;20463;-66
2022/07/20 08:47:11;;;;;;;9.63;8.37;;;30.10;80.10;;;;;;5065862;28;20451;-66
2022/07/20 08:49:45;;;;;;;9.03;7.73;;;30.20;76.90;;;;;;5060086;28;20505;-67
2022/07/20 08:52:12;;;;;;;8.10;7.30;;;30.20;76.60;;;;;;5070970;28;20447;-66
2022/07/20 08:54:39;;;;;;;9.50;7.50;;;30.40;76.90;;;;;;5070382;28;20478;-65
2022/07/20 08:57:08;;;;;;;8.53;7.67;;;30.50;76.30;;;;;;5063213;28;20475;-66
2022/07/20 08:59:35;;;;;;;12.60;8.47;;;30.70;73.70;;;;;;5068437;28;20882;-66
2022/07/20 09:02:04;;;;;;;8.37;7.30;;;30.80;71.00;;;;;;5066719;28;21006;-65
2022/07/20 09:04:31;;;;;;;8.60;7.70;;;30.80;70.30;;;;;;5070215;28;20516;-66
2022/07/20 09:06:59;;;;;;;8.60;7.80;;;30.90;69.10;;;;;;5067471;28;20454;-66
2022/07/20 09:09:26;;;;;;;8.77;7.97;;;30.90;68.70;;;;;;5069641;28;20447;-66
2022/07/20 09:11:53;;;;;;;15.50;7.83;;;31.10;69.40;;;;;;5064573;28;20555;-68
2022/07/20 09:14:40;;;;;;;10.33;7.60;;;31.20;67.40;;;;;;5062359;28;20463;-67
2022/07/20 09:17:18;;;;;;;7.33;6.63;;;31.30;65.30;;;;;;5066064;28;21222;-66
2022/07/20 09:19:59;;;;;;;9.70;7.60;;;31.40;62.70;;;;;;5059149;28;20447;-68
2022/07/20 09:22:32;;;;;;;9.57;7.63;;;31.50;63.90;;;;;;5066130;28;20470;-67
2022/07/20 09:25:07;;;;;;;8.73;7.57;;;31.60;63.10;;;;;;5064444;28;20482;-66
2022/07/20 09:27:34;;;;;;;8.60;7.43;;;31.60;62.40;;;;;;5059569;28;20523;-68
2022/07/20 09:30:10;;;;;;;8.03;7.20;;;31.70;62.50;;;;;;5065090;28;20934;-66
2022/07/20 09:32:51;;;;;;;8.03;7.23;;;31.90;63.20;;;;;;5060897;28;20458;-66
2022/07/20 09:35:19;;;;;;;10.60;7.10;;;32.20;62.50;;;;;;5066636;28;20473;-66
2022/07/20 09:37:48;;;;;;;10.10;7.00;;;32.40;60.90;;;;;;5065700;28;20479;-67
2022/07/20 09:40:14;;;;;;;11.80;6.97;;;32.60;60.30;;;;;;5064103;28;20451;-67
2022/07/20 09:42:43;;;;;;;10.20;6.60;;;32.70;58.70;;;;;;5056435;28;20435;-66
2022/07/20 09:45:24;;;;;;;9.43;6.80;;;32.90;58.30;;;;;;5062994;28;20487;-65
2022/07/20 09:48:09;;;;;;;8.10;6.23;;;33.20;56.30;;;;;;5066258;28;20439;-66
2022/07/20 09:50:39;;;;;;;10.90;7.07;;;33.20;56.10;;;;;;5066375;28;20466;-66
2022/07/20 09:53:08;;;;;;;7.93;6.50;;;33.10;56.20;;;;;;5060076;28;20459;-64
2022/07/20 09:55:37;;;;;;;8.50;6.57;;;33.10;56.10;;;;;;5064084;28;20483;-67
2022/07/20 09:58:04;;;;;;;9.50;6.47;;;33.40;56.50;;;;;;5062213;28;20482;-66
2022/07/20 10:00:32;;;;;;;8.17;6.63;;;33.80;55.00;;;;;;5056636;28;20826;-64
2022/07/20 10:03:01;;;;;;;9.00;6.97;;;34.40;54.40;;;;;;5069401;28;20443;-68
2022/07/20 10:05:31;;;;;;;12.60;6.97;;;34.80;53.70;;;;;;5067606;28;20510;-67
2022/07/20 10:08:02;;;;;;;7.77;6.97;;;35.20;52.10;;;;;;5067575;28;20465;-66
2022/07/20 10:10:30;;;;;;;7.13;6.30;;;35.20;51.90;;;;;;5062319;28;20452;-68
2022/07/20 10:12:57;;;;;;;9.13;6.40;;;35.80;52.00;;;;;;5064334;28;20533;-66
2022/07/20 10:15:31;;;;;;;7.33;6.50;;;36.00;51.70;;;;;;5065761;28;20479;-67
2022/07/20 10:17:58;;;;;;;10.97;6.90;;;36.20;51.30;;;;;;5069261;28;20479;-65
2022/07/20 10:20:33;;;;;;;7.40;6.70;;;36.30;49.20;;;;;;5063185;28;20461;-66
2022/07/20 10:23:32;;;;;;;7.63;6.73;;;36.30;49.60;;;;;;5066622;28;20495;-68
2022/07/20 10:26:00;;;;;;;7.97;7.17;;;36.00;49.20;;;;;;5063598;28;20582;-66
2022/07/20 10:28:37;;;;;;;7.13;6.47;;;36.10;49.40;;;;;;5062246;28;20446;-67
2022/07/20 10:31:08;;;;;;;10.50;7.50;;;36.40;49.60;;;;;;5061931;28;20976;-67
2022/07/20 10:33:37;;;;;;;8.00;6.70;;;36.20;48.80;;;;;;5067970;28;21002;-66
2022/07/20 10:39:43;;;;;;;7.60;6.90;;;36.00;50.00;;;;;;5073275;28;20478;-66
2022/07/20 10:42:30;;;;;;;14.03;7.67;;;36.30;49.50;;;;;;5061815;28;20454;-66
2022/07/20 10:45:29;;;;;;;7.83;7.00;;;36.50;49.30;;;;;;5063616;28;20489;-66
2022/07/20 10:48:00;;;;;;;7.70;6.83;;;36.70;48.00;;;;;;5070394;28;20478;-66
2022/07/20 10:50:31;;;;;;;6.80;6.00;;;37.00;48.20;;;;;;5063039;28;20478;-66
2022/07/20 10:53:00;;;;;;;6.77;6.17;;;37.20;47.90;;;;;;5068643;28;20451;-67
2022/07/20 10:55:50;;;;;;;7.23;6.43;;;37.10;46.90;;;;;;5067745;28;20498;-66
2022/07/20 10:58:21;;;;;;;7.00;6.30;;;36.80;46.20;;;;;;5063586;28;21039;-67
2022/07/20 11:00:50;;;;;;;10.47;6.70;;;36.90;46.20;;;;;;5067477;28;20588;-67
2022/07/20 11:03:19;;;;;;;8.57;6.87;;;37.40;46.00;;;;;;5073132;28;20447;-66
2022/07/20 11:05:47;;;;;;;6.90;6.30;;;37.40;45.80;;;;;;5072875;28;20474;-65
2022/07/20 11:08:14;;;;;;;7.40;6.70;;;37.20;45.80;;;;;;5072904;28;20447;-68
2022/07/20 11:10:43;;;;;;;8.07;6.87;;;37.30;46.20;;;;;;5071928;28;20439;-64
2022/07/20 11:13:11;;;;;;;7.10;6.53;;;37.40;46.60;;;;;;5068018;28;20454;-66
2022/07/20 11:15:40;;;;;;;8.60;6.53;;;37.70;45.60;;;;;;5061191;28;20480;-65
2022/07/20 11:18:09;;;;;;;8.27;6.10;;;37.40;46.00;;;;;;5063042;28;20475;-66
2022/07/20 11:20:37;;;;;;;9.13;7.63;;;37.30;47.00;;;;;;5064535;28;20465;-66
2022/07/20 11:23:04;;;;;;;7.77;7.00;;;37.40;46.70;;;;;;5059434;28;20466;-67
2022/07/20 11:25:49;;;;;;;7.10;6.40;;;37.40;46.60;;;;;;5062459;28;20491;-66
2022/07/20 11:28:18;;;;;;;8.97;6.13;;;37.40;46.70;;;;;;5061098;28;20443;-66
2022/07/20 11:30:47;;;;;;;7.07;6.40;;;37.70;45.90;;;;;;5061458;28;20447;-67
2022/07/20 11:33:14;;;;;;;9.07;7.00;;;37.60;45.80;;;;;;5063279;28;20462;-66
2022/07/20 11:35:41;;;;;;;7.40;6.70;;;38.00;45.40;;;;;;5062316;28;20462;-67
2022/07/20 11:38:08;;;;;;;7.97;6.67;;;38.10;45.40;;;;;;5062447;28;20483;-66
2022/07/20 11:40:35;;;;;;;8.37;6.87;;;38.00;45.50;;;;;;5061992;28;20461;-66
2022/07/20 11:43:06;;;;;;;7.30;6.70;;;38.10;45.90;;;;;;5061869;28;20453;-67
2022/07/20 11:45:33;;;;;;;7.30;6.70;;;38.30;45.70;;;;;;5061104;28;20982;-68
2022/07/20 11:48:03;;;;;;;7.17;6.47;;;38.40;45.40;;;;;;5060898;28;20444;-66
2022/07/20 11:50:32;;;;;;;8.00;7.03;;;38.70;44.70;;;;;;5063093;28;20466;-69
2022/07/20 11:52:59;;;;;;;8.87;7.87;;;38.80;44.20;;;;;;5060793;28;21103;-68
2022/07/20 11:55:34;;;;;;;8.43;7.77;;;38.70;44.60;;;;;;5059861;28;20473;-66
2022/07/20 11:58:01;;;;;;;8.30;7.40;;;38.80;43.90;;;;;;5059238;28;20490;-65
2022/07/20 12:00:29;;;;;;;7.40;6.60;;;38.60;44.90;;;;;;5057178;28;20460;-67
2022/07/20 12:02:56;;;;;;;8.43;7.63;;;39.20;43.60;;;;;;5059821;28;20462;-67
2022/07/20 12:05:25;;;;;;;8.97;7.20;;;39.40;44.30;;;;;;5058896;28;20463;-66
2022/07/20 12:08:10;;;;;;;7.97;6.93;;;39.10;43.10;;;;;;5059171;28;20466;-68
2022/07/20 12:10:37;;;;;;;7.93;6.67;;;38.80;44.20;;;;;;5060262;28;20484;-66
2022/07/20 12:13:05;;;;;;;9.43;6.80;;;39.00;43.50;;;;;;5061039;28;20464;-66
2022/07/20 12:15:32;;;;;;;8.10;7.30;;;39.30;44.00;;;;;;5069271;28;20459;-66
2022/07/20 12:17:59;;;;;;;6.83;6.13;;;39.30;42.90;;;;;;5070425;28;20486;-67
2022/07/20 12:20:28;;;;;;;8.07;7.27;;;39.40;43.00;;;;;;5066420;28;20446;-65
2022/07/20 12:22:56;;;;;;;10.33;6.97;;;39.30;42.20;;;;;;5070710;28;20454;-68
2022/07/20 12:25:35;;;;;;;7.60;6.93;;;39.40;44.50;;;;;;5051343;28;20468;-67
2022/07/20 12:28:02;;;;;;;8.97;7.40;;;39.50;43.30;;;;;;5051331;28;20440;-66
2022/07/20 12:30:31;;;;;;;8.67;7.63;;;39.80;43.10;;;;;;5052106;28;20805;-67
2022/07/20 12:33:08;;;;;;;7.50;6.90;;;39.70;42.90;;;;;;5068257;28;20451;-65
2022/07/20 12:35:38;;;;;;;8.00;7.23;;;39.60;43.50;;;;;;5068506;28;20481;-68
2022/07/20 12:38:05;;;;;;;8.17;7.40;;;40.10;43.60;;;;;;5067649;28;20493;-66
2022/07/20 12:40:34;;;;;;;8.90;7.60;;;39.70;42.20;;;;;;5064609;28;20454;-66
2022/07/20 12:43:02;;;;;;;10.93;8.30;;;39.40;43.40;;;;;;5068172;28;20451;-67
2022/07/20 12:45:29;;;;;;;13.83;8.30;;;39.50;44.10;;;;;;5059057;28;20498;-66
2022/07/20 12:47:55;;;;;;;10.40;9.37;;;39.50;45.20;;;;;;5062555;28;20458;-66
2022/07/20 12:50:22;;;;;;;11.27;9.30;;;39.60;44.10;;;;;;5064882;28;20446;-66
2022/07/20 12:52:51;;;;;;;11.37;10.27;;;39.70;44.60;;;;;;5070942;28;20466;-67
2022/07/20 12:55:17;;;;;;;11.50;10.50;;;39.60;45.60;;;;;;5070207;28;20466;-65
2022/07/20 12:57:46;;;;;;;13.30;10.60;;;39.70;45.00;;;;;;5069890;28;20448;-67